Time;durP1;ratioP1;P1;durP2;ratioP2;P2;SDS_P1;SDS_P2;PMS_P1;PMS_P2;Temp;Humidity;BMP_temperature;BMP_pressure;BME280_temperature;BME280_humidity;BME280_pressure;Samples;Min_cycle;Max_cycle;Signal;HPM_P1;HPM_P2
2022/09/14 00:00:49;;;;;;;;;;;17.40;99.90;;;;;;5066136;28;19921;-70
2022/09/14 00:03:16;;;;;;;;;;;17.40;99.90;;;;;;5065994;28;19921;-71
2022/09/14 00:05:43;;;;;;;;;;;17.40;99.90;;;;;;5069843;28;19928;-70
2022/09/14 00:08:11;;;;;;;;;;;17.40;99.90;;;;;;5066014;28;19920;-70
2022/09/14 00:10:39;;;;;;;;;;;17.40;99.90;;;;;;5070758;28;19963;-70
2022/09/14 00:13:05;;;;;;;;;;;17.40;99.90;;;;;;5065336;28;19929;-70
2022/09/14 00:15:34;;;;;;;;;;;17.40;99.90;;;;;;5065424;28;19988;-71
2022/09/14 00:18:01;;;;;;;;;;;17.40;99.90;;;;;;5074842;28;19984;-71
2022/09/14 00:20:28;;;;;;;;;;;17.40;99.90;;;;;;5071453;28;19927;-71
2022/09/14 00:22:54;;;;;;;;;;;17.40;99.90;;;;;;5065030;28;20158;-72
2022/09/14 00:25:22;;;;;;;;;;;17.40;99.90;;;;;;5065716;28;19925;-70
2022/09/14 00:27:49;;;;;;;;;;;17.40;99.90;;;;;;5065699;28;19921;-71
2022/09/14 00:30:16;;;;;;;;;;;17.40;99.90;;;;;;5065955;28;19980;-70
2022/09/14 00:32:42;;;;;;;;;;;17.40;99.90;;;;;;5065451;28;19964;-70
2022/09/14 00:35:09;;;;;;;;;;;17.40;99.90;;;;;;5065564;28;19929;-71
2022/09/14 00:37:38;;;;;;;;;;;17.40;99.90;;;;;;5068175;28;20169;-71
2022/09/14 00:40:05;;;;;;;;;;;17.30;99.90;;;;;;5070292;28;20120;-70
2022/09/14 00:42:33;;;;;;;;;;;17.30;99.90;;;;;;5065259;28;19971;-71
2022/09/14 00:45:01;;;;;;;;;;;17.30;99.90;;;;;;5065304;28;19921;-70
2022/09/14 00:47:29;;;;;;;;;;;17.30;99.90;;;;;;5068004;28;20246;-71
2022/09/14 00:49:55;;;;;;;;;;;17.30;99.90;;;;;;5081980;28;19920;-71
2022/09/14 00:52:24;;;;;;;;;;;17.30;99.90;;;;;;5065511;28;19980;-70
2022/09/14 00:54:52;;;;;;;;;;;17.30;99.90;;;;;;5071003;28;20152;-71
2022/09/14 00:57:19;;;;;;;;;;;17.30;99.90;;;;;;5085690;28;19927;-70
2022/09/14 00:59:48;;;;;;;;;;;17.30;99.90;;;;;;5079114;28;19991;-71
2022/09/14 01:02:15;;;;;;;;;;;17.30;99.90;;;;;;5073832;28;20107;-71
2022/09/14 01:04:42;;;;;;;;;;;17.30;99.90;;;;;;5078128;28;19932;-71
2022/09/14 01:07:16;;;;;;;;;;;17.30;99.90;;;;;;5079845;28;19927;-71
2022/09/14 01:09:46;;;;;;;;;;;17.20;99.90;;;;;;5076475;28;20143;-71
2022/09/14 01:12:19;;;;;;;;;;;17.30;99.90;;;;;;5065123;28;19927;-70
2022/09/14 01:14:50;;;;;;;;;;;17.20;99.90;;;;;;5064676;28;19927;-71
2022/09/14 01:17:21;;;;;;;;;;;17.20;99.90;;;;;;5065013;28;19956;-70
2022/09/14 01:20:02;;;;;;;;;;;17.20;99.90;;;;;;5065166;28;20157;-70
2022/09/14 01:22:33;;;;;;;;;;;17.20;99.90;;;;;;5064381;28;19960;-70
2022/09/14 01:25:06;;;;;;;;;;;17.20;99.90;;;;;;5068149;28;19935;-71
2022/09/14 01:27:39;;;;;;;;;;;17.30;99.90;;;;;;5063608;28;19921;-70
2022/09/14 01:30:07;;;;;;;;;;;17.20;99.90;;;;;;5064284;28;20209;-70
2022/09/14 01:32:38;;;;;;;;;;;17.20;99.90;;;;;;5067928;28;19927;-70
2022/09/14 01:35:07;;;;;;;;;;;17.20;99.90;;;;;;5076286;28;19921;-71
2022/09/14 01:37:36;;;;;;;;;;;17.20;99.90;;;;;;5064346;28;19921;-70
2022/09/14 01:40:05;;;;;;;;;;;17.20;99.90;;;;;;5072623;28;19921;-71
2022/09/14 01:42:33;;;;;;;;;;;17.20;99.90;;;;;;5064408;28;20270;-70
2022/09/14 01:45:02;;;;;;;;;;;17.20;99.90;;;;;;5070086;28;20200;-71
2022/09/14 01:47:31;;;;;;;;;;;17.20;99.90;;;;;;5083734;28;20263;-71
2022/09/14 01:50:01;;;;;;;;;;;17.20;99.90;;;;;;5069029;28;19980;-70
2022/09/14 01:52:30;;;;;;;;;;;17.20;99.90;;;;;;5063784;28;19921;-71
2022/09/14 01:54:58;;;;;;;;;;;17.20;99.90;;;;;;5065890;28;19927;-71
2022/09/14 01:57:28;;;;;;;;;;;17.20;99.90;;;;;;5083911;28;19988;-71
2022/09/14 01:59:56;;;;;;;;;;;17.20;99.90;;;;;;5083400;28;19924;-70
2022/09/14 02:02:27;;;;;;;;;;;17.20;99.90;;;;;;5064752;28;19921;-71
2022/09/14 02:04:57;;;;;;;;;;;17.20;99.90;;;;;;5064549;28;20234;-70
2022/09/14 02:07:24;;;;;;;;;;;17.20;99.90;;;;;;5063592;28;19921;-70
2022/09/14 02:09:51;;;;;;;;;;;17.20;99.90;;;;;;5063750;28;19984;-71
2022/09/14 02:12:18;;;;;;;;;;;17.20;99.90;;;;;;5063576;28;19920;-70
2022/09/14 02:14:45;;;;;;;;;;;17.20;99.90;;;;;;5063061;28;19992;-70
2022/09/14 02:17:12;;;;;;;;;;;17.20;99.90;;;;;;5078545;28;20207;-71
2022/09/14 02:19:44;;;;;;;;;;;17.30;99.90;;;;;;5083023;28;19999;-70
2022/09/14 02:22:11;;;;;;;;;;;17.30;99.90;;;;;;5083441;28;19996;-71
2022/09/14 02:24:38;;;;;;;;;;;17.20;99.90;;;;;;5080899;28;20187;-70
2022/09/14 02:27:06;;;;;;;;;;;17.20;99.90;;;;;;5083562;28;19927;-70
2022/09/14 02:29:33;;;;;;;;;;;17.30;99.90;;;;;;5069759;28;19921;-71
2022/09/14 02:32:06;;;;;;;;;;;17.30;99.90;;;;;;5063326;28;20204;-71
2022/09/14 02:34:36;;;;;;;;;;;17.30;99.90;;;;;;5063305;28;19947;-70
2022/09/14 02:37:09;;;;;;;;;;;17.30;99.90;;;;;;5063211;28;19991;-70
2022/09/14 02:39:56;;;;;;;;;;;17.30;99.90;;;;;;5063557;28;19983;-71
2022/09/14 02:42:25;;;;;;;;;;;17.30;99.90;;;;;;5067370;28;19927;-70
2022/09/14 02:44:57;;;;;;;;;;;17.20;99.90;;;;;;5079292;28;19925;-70
2022/09/14 02:47:27;;;;;;;;;;;17.30;99.90;;;;;;5063339;28;19928;-70
2022/09/14 02:49:58;;;;;;;;;;;17.30;99.90;;;;;;5063528;28;19983;-71
2022/09/14 02:52:29;;;;;;;;;;;17.30;99.90;;;;;;5062950;28;19920;-70
2022/09/14 02:54:58;;;;;;;;;;;17.30;99.90;;;;;;5065169;28;19929;-70
2022/09/14 02:57:25;;;;;;;;;;;17.30;99.90;;;;;;5066758;28;20270;-70
2022/09/14 02:59:53;;;;;;;;;;;17.30;99.90;;;;;;5063550;28;20123;-70
2022/09/14 03:02:19;;;;;;;;;;;17.30;99.90;;;;;;5063128;28;19921;-70
2022/09/14 03:04:46;;;;;;;;;;;17.30;99.90;;;;;;5066043;28;19991;-70
2022/09/14 03:07:13;;;;;;;;;;;17.20;99.90;;;;;;5062801;28;19927;-70
2022/09/14 03:09:41;;;;;;;;;;;17.20;99.90;;;;;;5063629;28;19921;-70
2022/09/14 03:12:07;;;;;;;;;;;17.20;99.90;;;;;;5062954;28;19927;-71
2022/09/14 03:14:34;;;;;;;;;;;17.20;99.90;;;;;;5062807;28;20239;-70
2022/09/14 03:17:01;;;;;;;;;;;17.20;99.90;;;;;;5081120;28;19991;-70
2022/09/14 03:19:27;;;;;;;;;;;17.20;99.90;;;;;;5070949;28;20244;-70
2022/09/14 03:21:54;;;;;;;;;;;17.20;99.90;;;;;;5063002;28;19988;-71
2022/09/14 03:24:21;;;;;;;;;;;17.20;99.90;;;;;;5062268;28;20192;-71
2022/09/14 03:26:51;;;;;;;;;;;17.20;99.90;;;;;;5064947;28;19921;-70
2022/09/14 03:29:17;;;;;;;;;;;17.20;99.90;;;;;;5069221;28;19951;-70
2022/09/14 03:31:44;;;;;;;;;;;17.10;99.90;;;;;;5062930;28;19952;-70
2022/09/14 03:34:10;;;;;;;;;;;17.10;99.90;;;;;;5062123;28;20259;-70
2022/09/14 03:36:37;;;;;;;;;;;17.10;99.90;;;;;;5062654;28;19920;-71
2022/09/14 03:39:04;;;;;;;;;;;17.00;99.90;;;;;;5072797;28;19984;-71
2022/09/14 03:41:30;;;;;;;;;;;17.10;99.90;;;;;;5062737;28;19921;-70
2022/09/14 03:43:58;;;;;;;;;;;17.10;99.90;;;;;;5062372;28;20172;-70
2022/09/14 03:46:25;;;;;;;;;;;17.00;99.90;;;;;;5062573;28;19987;-70
2022/09/14 03:48:52;;;;;;;;;;;17.00;99.90;;;;;;5073098;28;19987;-71
2022/09/14 03:51:18;;;;;;;;;;;17.00;99.90;;;;;;5065269;28;19924;-70
2022/09/14 03:53:45;;;;;;;;;;;17.00;99.90;;;;;;5063486;28;20152;-71
2022/09/14 03:56:14;;;;;;;;;;;17.00;99.90;;;;;;5065977;28;20003;-71
2022/09/14 03:58:40;;;;;;;;;;;17.00;99.90;;;;;;5083083;28;19966;-71
2022/09/14 04:01:09;;;;;;;;;;;17.00;99.90;;;;;;5085869;28;19983;-71
2022/09/14 04:03:36;;;;;;;;;;;17.00;99.90;;;;;;5085113;28;19927;-70
2022/09/14 04:06:04;;;;;;;;;;;16.90;99.90;;;;;;5086184;28;20299;-71
2022/09/14 04:08:30;;;;;;;;;;;17.00;99.90;;;;;;5079911;28;19921;-71
2022/09/14 04:10:57;;;;;;;;;;;16.90;99.90;;;;;;5105569;28;19927;-70
2022/09/14 04:13:24;;;;;;;;;;;16.90;99.90;;;;;;5105755;28;19995;-71
2022/09/14 04:15:57;;;;;;;;;;;16.90;99.90;;;;;;5106521;28;20148;-71
2022/09/14 04:18:26;;;;;;;;;;;16.90;99.90;;;;;;5101809;28;19920;-71
2022/09/14 04:20:57;;;;;;;;;;;16.90;99.90;;;;;;5085185;28;21284;-71
2022/09/14 04:23:24;;;;;;;;;;;16.90;99.90;;;;;;5095711;22;19921;-88
2022/09/14 04:25:51;;;;;;;;;;;16.90;99.90;;;;;;5047464;28;19921;-88
2022/09/14 04:28:18;;;;;;;;;;;16.80;99.90;;;;;;5047298;28;19921;-88
2022/09/14 04:30:45;;;;;;;;;;;16.80;99.90;;;;;;5047141;28;19941;-89
2022/09/14 04:33:11;;;;;;;;;;;16.80;99.90;;;;;;5064561;28;19952;-91
2022/09/14 04:35:39;;;;;;;;;;;16.80;99.90;;;;;;5069399;28;19944;-91
2022/09/14 04:38:06;;;;;;;;;;;16.80;99.90;;;;;;5077773;28;19927;-91
2022/09/14 04:40:33;;;;;;;;;;;16.80;99.90;;;;;;5070835;28;19921;-91
2022/09/14 04:42:59;;;;;;;;;;;16.80;99.90;;;;;;5069336;28;19921;-91
2022/09/14 04:45:26;;;;;;;;;;;16.80;99.90;;;;;;5065459;28;20176;-90
2022/09/14 04:47:53;;;;;;;;;;;16.80;99.90;;;;;;5072897;28;20227;-88
2022/09/14 04:50:22;;;;;;;;;;;16.80;99.90;;;;;;5086139;28;19927;-89
2022/09/14 04:52:50;;;;;;;;;;;16.80;99.90;;;;;;5085940;28;20299;-90
2022/09/14 04:55:18;;;;;;;;;;;16.80;99.90;;;;;;5086575;28;19952;-92
2022/09/14 04:57:45;;;;;;;;;;;16.80;99.90;;;;;;5085338;28;19929;-93
2022/09/14 05:00:13;;;;;;;;;;;16.80;99.90;;;;;;5087137;28;19931;-95
2022/09/14 05:02:41;;;;;;;;;;;16.90;99.90;;;;;;5079638;28;19913;-94
2022/09/14 05:05:09;;;;;;;;;;;16.90;99.90;;;;;;5079513;28;19943;-94
2022/09/14 05:07:35;;;;;;;;;;;16.90;99.90;;;;;;5080315;22;19943;-70
2022/09/14 05:10:04;;;;;;;;;;;16.80;99.90;;;;;;5065140;28;19959;-70
2022/09/14 05:12:32;;;;;;;;;;;16.80;99.90;;;;;;5064828;28;19980;-71
2022/09/14 05:14:58;;;;;;;;;;;16.80;99.90;;;;;;5064728;28;19995;-71
2022/09/14 05:17:25;;;;;;;;;;;16.80;99.90;;;;;;5064973;28;20272;-71
2022/09/14 05:19:52;;;;;;;;;;;16.80;99.90;;;;;;5061175;28;19974;-68
2022/09/14 05:22:21;;;;;;;;;;;16.80;99.90;;;;;;5084814;28;19964;-68
2022/09/14 05:24:48;;;;;;;;;;;16.80;99.90;;;;;;5078225;28;20015;-68
2022/09/14 05:27:15;;;;;;;;;;;16.90;99.90;;;;;;5064832;28;19920;-66
2022/09/14 05:29:42;;;;;;;;;;;16.90;99.90;;;;;;5064814;28;19921;-70
2022/09/14 05:32:09;;;;;;;;;;;16.90;99.90;;;;;;5064498;28;20296;-69
2022/09/14 05:34:35;;;;;;;;;;;16.90;99.90;;;;;;5063821;28;19921;-69
2022/09/14 05:37:02;;;;;;;;;;;16.90;99.90;;;;;;5065011;28;19927;-68
2022/09/14 05:39:29;;;;;;;;;;;16.90;99.90;;;;;;5080977;28;19928;-69
2022/09/14 05:41:55;;;;;;;;;;;16.90;99.90;;;;;;5081770;28;20226;-69
2022/09/14 05:44:23;;;;;;;;;;;16.90;99.90;;;;;;5063781;28;19963;-69
2022/09/14 05:46:50;;;;;;;;;;;16.90;99.90;;;;;;5064779;28;20011;-69
2022/09/14 05:49:16;;;;;;;;;;;16.90;99.90;;;;;;5064617;28;19920;-69
2022/09/14 05:51:43;;;;;;;;;;;16.90;99.90;;;;;;5064861;28;19921;-69
2022/09/14 05:54:10;;;;;;;;;;;16.90;99.90;;;;;;5064149;28;19954;-69
2022/09/14 05:56:37;;;;;;;;;;;16.90;99.90;;;;;;5064541;28;19920;-70
2022/09/14 05:59:04;;;;;;;;;;;17.00;99.90;;;;;;5076222;28;19920;-69
2022/09/14 06:01:32;;;;;;;;;;;17.00;99.90;;;;;;5084548;28;19948;-69
2022/09/14 06:04:01;;;;;;;;;;;17.00;99.90;;;;;;5083899;28;20122;-70
2022/09/14 06:06:27;;;;;;;;;;;16.90;99.90;;;;;;5066095;28;19928;-69
2022/09/14 06:08:55;;;;;;;;;;;17.00;99.90;;;;;;5064263;28;19984;-70
2022/09/14 06:11:22;;;;;;;;;;;17.00;99.90;;;;;;5064494;28;19942;-69
2022/09/14 06:13:49;;;;;;;;;;;17.00;99.90;;;;;;5063323;28;19920;-70
2022/09/14 06:16:17;;;;;;;;;;;16.90;99.90;;;;;;5064100;28;19959;-69
2022/09/14 06:18:45;;;;;;;;;;;16.90;99.90;;;;;;5064160;28;19921;-69
2022/09/14 06:21:14;;;;;;;;;;;16.90;99.90;;;;;;5064234;28;19943;-69
2022/09/14 06:23:40;;;;;;;;;;;16.90;99.90;;;;;;5063553;28;20116;-70
2022/09/14 06:26:07;;;;;;;;;;;16.90;99.90;;;;;;5064132;28;19980;-70
2022/09/14 06:28:34;;;;;;;;;;;16.90;99.90;;;;;;5064191;28;19921;-69
2022/09/14 06:31:03;;;;;;;;;;;16.90;99.90;;;;;;5064210;28;19927;-69
2022/09/14 06:33:30;;;;;;;;;;;17.00;99.90;;;;;;5063339;28;19925;-69
2022/09/14 06:35:59;;;;;;;;;;;17.00;99.90;;;;;;5063956;28;19927;-69
2022/09/14 06:38:26;;;;;;;;;;;16.90;99.90;;;;;;5063721;28;19920;-69
2022/09/14 06:40:54;;;;;;;;;;;16.90;99.90;;;;;;5063893;28;19921;-68
2022/09/14 06:43:22;;;;;;;;;;;17.00;99.90;;;;;;5060567;28;19935;-70
2022/09/14 06:45:56;;;;;;;;;;;17.00;99.90;;;;;;5056898;28;20108;-69
2022/09/14 06:48:22;;;;;;;;;;;17.00;99.90;;;;;;5063411;28;19928;-69
2022/09/14 06:50:49;;;;;;;;;;;17.00;99.90;;;;;;5059612;28;19920;-69
2022/09/14 06:53:17;;;;;;;;;;;17.00;99.90;;;;;;5062597;28;19963;-69
2022/09/14 06:55:44;;;;;;;;;;;17.00;99.90;;;;;;5063168;28;19980;-69
2022/09/14 06:58:13;;;;;;;;;;;17.10;99.90;;;;;;5064111;28;19920;-70
2022/09/14 07:00:40;;;;;;;;;;;17.00;99.90;;;;;;5083623;28;19943;-69
2022/09/14 07:03:06;;;;;;;;;;;17.10;99.90;;;;;;5073592;28;19979;-69
2022/09/14 07:05:35;;;;;;;;;;;17.10;99.90;;;;;;5060821;28;19988;-69
2022/09/14 07:08:02;;;;;;;;;;;17.20;99.90;;;;;;5061573;28;19921;-69
2022/09/14 07:10:30;;;;;;;;;;;17.20;99.90;;;;;;5062866;28;19952;-69
2022/09/14 07:12:58;;;;;;;;;;;17.20;99.90;;;;;;5062886;28;19927;-69
2022/09/14 07:15:25;;;;;;;;;;;17.30;99.90;;;;;;5063382;28;19943;-69
2022/09/14 07:17:52;;;;;;;;;;;17.30;99.90;;;;;;5067780;28;19927;-69
2022/09/14 07:20:19;;;;;;;;;;;17.40;99.90;;;;;;5073410;28;19920;-69
2022/09/14 07:22:45;;;;;;;;;;;17.40;99.90;;;;;;5062723;28;19920;-69
2022/09/14 07:25:12;;;;;;;;;;;17.50;99.90;;;;;;5064315;28;19992;-69
2022/09/14 07:27:40;;;;;;;;;;;17.50;99.90;;;;;;5069603;28;19927;-68
2022/09/14 07:30:09;;;;;;;;;;;17.60;99.90;;;;;;5087266;28;19928;-67
2022/09/14 07:32:35;;;;;;;;;;;17.60;99.90;;;;;;5087031;28;19920;-68
2022/09/14 07:35:02;;;;;;;;;;;17.60;99.90;;;;;;5087024;28;19955;-69
2022/09/14 07:37:29;;;;;;;;;;;17.70;99.90;;;;;;5087248;28;19992;-69
2022/09/14 07:39:57;;;;;;;;;;;17.70;99.90;;;;;;5072898;28;19921;-69
2022/09/14 07:42:23;;;;;;;;;;;17.80;99.90;;;;;;5066802;28;19967;-68
2022/09/14 07:44:51;;;;;;;;;;;17.80;99.90;;;;;;5066384;28;19927;-68
2022/09/14 07:47:18;;;;;;;;;;;17.80;99.90;;;;;;5062235;28;19920;-67
2022/09/14 07:49:44;;;;;;;;;;;17.80;99.90;;;;;;5066586;28;19987;-69
2022/09/14 07:52:11;;;;;;;;;;;17.80;99.90;;;;;;5067003;28;19988;-68
2022/09/14 07:54:38;;;;;;;;;;;17.80;99.90;;;;;;5066064;28;20116;-69
2022/09/14 07:57:04;;;;;;;;;;;17.80;99.90;;;;;;5066386;28;20266;-68
2022/09/14 07:59:31;;;;;;;;;;;17.90;99.90;;;;;;5066856;28;19927;-69
2022/09/14 08:01:59;;;;;;;;;;;17.90;99.90;;;;;;5066725;28;19997;-69
2022/09/14 08:04:26;;;;;;;;;;;17.90;99.90;;;;;;5065589;28;19921;-69
2022/09/14 08:06:52;;;;;;;;;;;18.00;99.90;;;;;;5066296;28;19927;-68
2022/09/14 08:09:19;;;;;;;;;;;17.90;99.90;;;;;;5063339;28;19963;-68
2022/09/14 08:11:45;;;;;;;;;;;17.90;99.90;;;;;;5066423;28;19996;-69
2022/09/14 08:14:14;;;;;;;;;;;17.90;99.90;;;;;;5065472;28;20230;-69
2022/09/14 08:16:41;;;;;;;;;;;17.90;99.90;;;;;;5066366;28;19921;-68
2022/09/14 08:19:11;;;;;;;;;;;18.00;99.90;;;;;;5066392;28;19921;-69
2022/09/14 08:21:41;;;;;;;;;;;18.00;99.90;;;;;;5064975;28;19920;-69
2022/09/14 08:24:07;;;;;;;;;;;17.90;99.90;;;;;;5065368;28;19920;-69
2022/09/14 08:26:36;;;;;;;;;;;17.90;99.90;;;;;;5065962;28;19991;-69
2022/09/14 08:29:03;;;;;;;;;;;18.00;99.90;;;;;;5066219;28;19924;-69
2022/09/14 08:31:30;;;;;;;;;;;18.00;99.90;;;;;;5066410;28;19925;-69
2022/09/14 08:33:58;;;;;;;;;;;18.00;99.90;;;;;;5065386;28;19928;-69
2022/09/14 08:36:28;;;;;;;;;;;18.10;99.90;;;;;;5065444;28;20235;-68
2022/09/14 08:38:55;;;;;;;;;;;18.10;99.90;;;;;;5065334;28;19928;-68
2022/09/14 08:41:26;;;;;;;;;;;18.20;99.90;;;;;;5065295;28;20262;-69
2022/09/14 08:43:53;;;;;;;;;;;18.20;99.90;;;;;;5070164;28;20278;-69
2022/09/14 08:46:33;;;;;;;;;;;18.20;99.90;;;;;;5085545;28;19966;-69
2022/09/14 08:49:01;;;;;;;;;;;18.20;99.90;;;;;;5086118;28;19920;-68
2022/09/14 08:51:29;;;;;;;;;;;18.30;99.90;;;;;;5085865;28;19983;-70
2022/09/14 08:53:58;;;;;;;;;;;18.30;99.90;;;;;;5068392;28;19921;-68
2022/09/14 08:56:26;;;;;;;;;;;18.40;99.90;;;;;;5064939;28;19927;-69
2022/09/14 08:59:06;;;;;;;;;;;18.40;99.90;;;;;;5065810;28;19921;-69
2022/09/14 09:01:37;;;;;;;;;;;18.40;99.90;;;;;;5065311;28;19970;-69
2022/09/14 09:04:17;;;;;;;;;;;18.40;99.90;;;;;;5064908;28;19988;-68
2022/09/14 09:06:50;;;;;;;;;;;18.40;99.90;;;;;;5065069;28;19927;-70
2022/09/14 09:09:21;;;;;;;;;;;18.40;99.90;;;;;;5065412;28;19979;-70
2022/09/14 09:11:50;;;;;;;;;;;18.40;99.90;;;;;;5065221;28;19927;-70
2022/09/14 09:14:19;;;;;;;;;;;18.50;99.90;;;;;;5050059;28;19921;-69
2022/09/14 09:16:47;;;;;;;;;;;18.50;99.90;;;;;;5044797;28;20283;-70
2022/09/14 09:19:17;;;;;;;;;;;18.60;99.90;;;;;;5044993;28;19927;-69
2022/09/14 09:21:46;;;;;;;;;;;18.60;99.90;;;;;;5056353;28;19921;-70
2022/09/14 09:24:20;;;;;;;;;;;18.70;99.90;;;;;;5061070;28;19921;-70
2022/09/14 09:26:46;;;;;;;;;;;18.70;99.90;;;;;;5064863;28;19921;-71
2022/09/14 09:29:13;;;;;;;;;;;18.80;99.90;;;;;;5064699;28;19999;-69
2022/09/14 09:31:43;;;;;;;;;;;18.80;99.90;;;;;;5064304;28;19956;-70
2022/09/14 09:34:10;;;;;;;;;;;19.00;99.90;;;;;;5063662;28;19943;-70
2022/09/14 09:36:39;;;;;;;;;;;19.00;99.90;;;;;;5064507;28;19927;-68
2022/09/14 09:39:05;;;;;;;;;;;19.10;99.90;;;;;;5064401;28;20213;-69
2022/09/14 09:41:41;;;;;;;;;;;19.10;99.90;;;;;;5063187;28;19920;-69
2022/09/14 09:44:09;;;;;;;;;;;19.20;99.90;;;;;;5055993;28;19980;-69
2022/09/14 09:46:37;;;;;;;;;;;19.20;99.90;;;;;;5063636;28;19921;-69
2022/09/14 09:49:05;;;;;;;;;;;19.30;99.90;;;;;;5063432;28;19992;-70
2022/09/14 09:51:34;;;;;;;;;;;19.30;99.90;;;;;;5064387;28;20085;-70
2022/09/14 09:54:05;;;;;;;;;;;19.40;99.90;;;;;;5063306;28;20151;-71
2022/09/14 09:56:35;;;;;;;;;;;19.40;99.90;;;;;;5064086;28;19988;-70
2022/09/14 09:59:02;;;;;;;;;;;19.50;99.90;;;;;;5064410;28;19987;-70
2022/09/14 10:01:30;;;;;;;;;;;19.50;99.90;;;;;;5061430;28;20013;-71
2022/09/14 10:04:01;;;;;;;;;;;19.60;99.90;;;;;;5063525;28;19921;-71
2022/09/14 10:06:28;;;;;;;;;;;19.60;99.90;;;;;;5063878;28;19920;-70
2022/09/14 10:08:56;;;;;;;;;;;19.60;99.90;;;;;;5064349;28;19920;-71
2022/09/14 10:11:31;;;;;;;;;;;19.70;99.90;;;;;;5061401;28;19921;-71
2022/09/14 10:14:00;;;;;;;;;;;19.70;99.90;;;;;;5063072;28;19921;-70
2022/09/14 10:16:31;;;;;;;;;;;19.80;99.90;;;;;;5044123;28;19949;-71
2022/09/14 10:18:58;;;;;;;;;;;19.80;99.90;;;;;;5044195;28;19987;-72
2022/09/14 10:21:25;;;;;;;;;;;19.80;99.90;;;;;;5055811;28;19943;-71
2022/09/14 10:24:02;;;;;;;;;;;19.80;99.90;;;;;;5086645;22;19917;-94
2022/09/14 10:26:31;;;;;;;;;;;19.80;99.90;;;;;;5046209;28;19933;-94
2022/09/14 10:29:26;;;;;;;;;;;19.90;99.90;;;;;;5058838;28;19909;-94
2022/09/14 10:31:57;;;;;;;;;;;20.00;99.90;;;;;;5059195;28;19909;-93
2022/09/14 10:34:23;;;;;;;;;;;20.10;99.90;;;;;;5058456;28;19909;-93
2022/09/14 10:36:58;;;;;;;;;;;20.10;99.90;;;;;;5059087;28;19943;-95
2022/09/14 10:39:28;;;;;;;;;;;20.20;99.90;;;;;;5057684;28;19924;-96
2022/09/14 10:41:59;;;;;;;;;;;20.20;99.90;;;;;;5058995;28;19913;-95
2022/09/14 10:44:43;;;;;;;;;;;20.20;99.90;;;;;;5058641;28;19929;-96
2022/09/14 10:47:22;;;;;;;;;;;20.30;99.90;;;;;;5059150;28;19909;-95
2022/09/14 10:49:56;;;;;;;;;;;20.40;99.90;;;;;;5059551;28;19914;-96
2022/09/14 10:52:26;;;;;;;;;;;20.50;99.90;;;;;;5058572;28;19913;-96
2022/09/14 10:55:02;;;;;;;;;;;20.50;99.90;;;;;;5058190;28;19913;-95
2022/09/14 10:57:36;;;;;;;;;;;20.50;99.90;;;;;;5058674;28;20004;-95
2022/09/14 11:00:09;;;;;;;;;;;20.60;99.90;;;;;;5042141;28;19951;-96
2022/09/14 11:02:49;;;;;;;;;;;20.70;99.90;;;;;;5058816;28;19940;-96
2022/09/14 11:05:21;;;;;;;;;;;20.70;99.90;;;;;;5058919;28;19921;-96
2022/09/14 11:08:02;;;;;;;;;;;21.30;99.90;;;;;;5059457;28;19913;-96
2022/09/14 11:10:34;;;;;;;;;;;21.20;99.90;;;;;;5059835;28;19935;-96
2022/09/14 11:13:17;;;;;;;;;;;21.40;99.90;;;;;;5059627;28;19968;-96
2022/09/14 11:15:52;;;;;;;;;;;21.50;99.90;;;;;;5051019;28;19933;-96
2022/09/14 11:18:33;;;;;;;;;;;21.60;99.90;;;;;;5059558;28;19909;-96
2022/09/14 11:21:03;;;;;;;;;;;21.70;99.90;;;;;;5058949;28;19920;-96
2022/09/14 11:23:40;;;;;;;;;;;21.90;99.90;;;;;;5058029;28;19932;-96
2022/09/14 11:26:11;;;;;;;;;;;22.00;99.90;;;;;;5059252;28;19976;-96
2022/09/14 11:28:40;;;;;;;;;;;22.20;99.90;;;;;;5059128;28;19909;-95
2022/09/14 11:31:11;;;;;;;;;;;22.30;99.90;;;;;;5057732;28;19921;-94
2022/09/14 11:33:40;;;;;;;;;;;22.40;99.90;;;;;;5051435;28;19911;-94
2022/09/14 11:36:09;;;;;;;;;;;22.40;99.90;;;;;;5056555;28;19989;-96
2022/09/14 11:38:40;;;;;;;;;;;22.40;99.90;;;;;;5056326;28;20000;-95
2022/09/14 11:41:10;;;;;;;;;;;22.40;99.90;;;;;;5037479;28;19921;-96
2022/09/14 11:43:43;;;;;;;;;;;22.40;99.90;;;;;;5046685;28;19919;-96
2022/09/14 11:46:12;;;;;;;;;;;22.40;99.90;;;;;;5057000;28;19916;-96
2022/09/14 11:48:44;;;;;;;;;;;22.30;99.90;;;;;;5056269;28;19909;-96
2022/09/14 11:51:14;;;;;;;;;;;22.30;99.90;;;;;;5057131;28;19924;-95
2022/09/14 11:53:41;;;;;;;;;;;22.40;99.90;;;;;;5056621;28;19920;-96
2022/09/14 11:56:16;;;;;;;;;;;22.40;99.90;;;;;;5057438;28;19916;-96
2022/09/14 11:58:46;;;;;;;;;;;22.50;99.90;;;;;;5056246;28;19913;-94
2022/09/14 12:01:30;;;;;;;;;;;22.50;99.90;;;;;;5057780;28;19916;-96
2022/09/14 12:04:08;;;;;;;;;;;22.70;99.90;;;;;;5076385;23;19920;-73
2022/09/14 12:06:52;;;;;;;;;;;22.60;99.90;;;;;;5083194;28;19984;-71
2022/09/14 12:09:46;;;;;;;;;;;22.60;99.90;;;;;;5082846;28;19952;-72
2022/09/14 12:12:33;;;;;;;;;;;22.70;99.90;;;;;;5031851;28;20266;-72
2022/09/14 12:15:01;;;;;;;;;;;22.60;99.90;;;;;;5066109;28;19927;-71
2022/09/14 12:17:31;;;;;;;;;;;22.70;99.90;;;;;;5066348;28;19921;-71
2022/09/14 12:19:59;;;;;;;;;;;22.70;99.90;;;;;;5065661;28;20081;-73
2022/09/14 12:22:28;;;;;;;;;;;22.70;99.90;;;;;;5065252;28;19988;-71
2022/09/14 12:25:02;;;;;;;;;;;23.00;99.90;;;;;;5066031;28;19959;-71
2022/09/14 12:27:30;;;;;;;;;;;23.30;99.90;;;;;;5066404;28;20036;-70
2022/09/14 12:29:57;;;;;;;;;;;23.60;99.90;;;;;;5066252;28;19927;-71
2022/09/14 12:32:24;;;;;;;;;;;23.80;99.90;;;;;;5066088;28;19987;-73
2022/09/14 12:35:06;;;;;;;;;;;24.00;99.90;;;;;;5065675;28;19920;-70
2022/09/14 12:37:34;;;;;;;;;;;24.30;99.90;;;;;;5064980;28;19927;-70
2022/09/14 12:40:28;;;;;;;;;;;24.40;99.90;;;;;;5065900;28;20280;-71
2022/09/14 12:42:54;;;;;;;;;;;24.50;99.90;;;;;;5063022;28;19988;-72
2022/09/14 12:45:40;;;;;;;;;;;24.60;99.90;;;;;;5070462;28;19921;-71
2022/09/14 12:48:07;;;;;;;;;;;24.80;99.90;;;;;;5066899;28;20208;-71
2022/09/14 12:50:35;;;;;;;;;;;25.10;99.90;;;;;;5075660;28;19983;-71
2022/09/14 12:53:21;;;;;;;;;;;25.10;99.90;;;;;;5063930;28;19964;-72
2022/09/14 12:55:56;;;;;;;;;;;25.00;99.90;;;;;;5061310;28;19983;-71
2022/09/14 12:58:33;;;;;;;;;;;24.90;99.90;;;;;;5082241;28;19932;-71
2022/09/14 13:01:06;;;;;;;;;;;24.70;99.90;;;;;;5066454;28;19959;-71
2022/09/14 13:03:41;;;;;;;;;;;24.60;99.90;;;;;;5064315;28;20172;-71
2022/09/14 13:06:10;;;;;;;;;;;24.40;99.90;;;;;;5064725;28;20271;-71
2022/09/14 13:08:39;;;;;;;;;;;24.30;99.90;;;;;;5064765;28;19943;-71
2022/09/14 13:11:06;;;;;;;;;;;24.10;99.90;;;;;;5069619;28;20093;-71
2022/09/14 13:13:33;;;;;;;;;;;24.00;99.90;;;;;;5064304;28;19927;-71
2022/09/14 13:16:01;;;;;;;;;;;23.80;99.90;;;;;;5065082;28;19935;-71
2022/09/14 13:18:30;;;;;;;;;;;23.70;99.90;;;;;;5065037;28;20115;-71
2022/09/14 13:20:57;;;;;;;;;;;23.60;99.90;;;;;;5065044;28;19985;-72
2022/09/14 13:23:27;;;;;;;;;;;23.50;99.90;;;;;;5063003;28;20027;-70
2022/09/14 13:25:55;;;;;;;;;;;23.50;99.90;;;;;;5064426;28;19984;-70
2022/09/14 13:28:23;;;;;;;;;;;23.30;99.90;;;;;;5082986;28;20116;-70
2022/09/14 13:30:53;;;;;;;;;;;23.40;99.90;;;;;;5084537;28;19920;-70
2022/09/14 13:33:20;;;;;;;;;;;23.30;99.90;;;;;;5084671;28;19920;-70
2022/09/14 13:35:48;;;;;;;;;;;23.20;99.90;;;;;;5077034;28;20208;-71
2022/09/14 13:38:16;;;;;;;;;;;23.20;99.90;;;;;;5064874;28;19920;-73
2022/09/14 13:40:43;;;;;;;;;;;23.20;99.90;;;;;;5063373;28;19939;-71
2022/09/14 13:43:11;;;;;;;;;;;23.10;99.90;;;;;;5059355;28;19928;-71
2022/09/14 13:45:38;;;;;;;;;;;23.10;99.90;;;;;;5064575;28;19965;-70
2022/09/14 13:48:05;;;;;;;;;;;23.10;99.90;;;;;;5064579;28;20112;-71
2022/09/14 13:50:33;;;;;;;;;;;23.10;99.90;;;;;;5064553;28;19921;-71
2022/09/14 13:52:59;;;;;;;;;;;23.10;99.90;;;;;;5063247;28;20284;-72
2022/09/14 13:55:27;;;;;;;;;;;23.10;99.90;;;;;;5059133;28;19987;-71
2022/09/14 13:58:15;;;;;;;;;;;23.00;99.90;;;;;;5063936;28;19921;-71
2022/09/14 14:00:53;;;;;;;;;;;23.00;99.90;;;;;;5062677;28;19927;-71
2022/09/14 14:03:27;;;;;;;;;;;22.90;99.90;;;;;;5062683;28;19921;-71
2022/09/14 14:05:54;;;;;;;;;;;22.90;99.90;;;;;;5059668;28;19996;-71
2022/09/14 14:08:26;;;;;;;;;;;22.90;99.90;;;;;;5060276;28;19988;-71
2022/09/14 14:10:53;;;;;;;;;;;22.90;99.90;;;;;;5047463;28;19933;-71
2022/09/14 14:13:25;;;;;;;;;;;22.80;99.90;;;;;;5057088;28;19932;-72
2022/09/14 14:15:52;;;;;;;;;;;22.80;99.90;;;;;;5049884;28;19940;-71
2022/09/14 14:18:38;;;;;;;;;;;22.80;99.90;;;;;;5059461;28;19944;-71
2022/09/14 14:21:13;;;;;;;;;;;22.70;99.90;;;;;;5060304;28;19928;-71
2022/09/14 14:23:41;;;;;;;;;;;22.40;99.90;;;;;;5062888;28;19966;-70
2022/09/14 14:26:08;;;;;;;;;;;22.30;99.90;;;;;;5063662;28;19959;-70
2022/09/14 14:28:36;;;;;;;;;;;22.10;99.90;;;;;;5065095;28;20111;-70